sensor_id;sensor_type;location;lat;lon;timestamp;P1;durP1;ratioP1;P2;durP2;ratioP2
64686;SDS011;51113;53.646;-113.674;2023-03-21T00:01:48;13.45;;;5.30;;
64686;SDS011;51113;53.646;-113.674;2023-03-21T00:04:21;25.07;;;5.80;;
64686;SDS011;51113;53.646;-113.674;2023-03-21T00:06:51;19.38;;;5.68;;
64686;SDS011;51113;53.646;-113.674;2023-03-21T00:09:20;16.23;;;5.60;;
64686;SDS011;51113;53.646;-113.674;2023-03-21T00:11:49;13.38;;;6.07;;
64686;SDS011;51113;53.646;-113.674;2023-03-21T00:14:18;15.40;;;6.00;;
64686;SDS011;51113;53.646;-113.674;2023-03-21T00:16:47;16.42;;;6.25;;
64686;SDS011;51113;53.646;-113.674;2023-03-21T00:19:19;20.35;;;5.53;;
64686;SDS011;51113;53.646;-113.674;2023-03-21T00:21:48;16.00;;;6.07;;
64686;SDS011;51113;53.646;-113.674;2023-03-21T00:24:33;16.13;;;6.22;;
64686;SDS011;51113;53.646;-113.674;2023-03-21T00:27:02;18.88;;;6.60;;
64686;SDS011;51113;53.646;-113.674;2023-03-21T00:29:51;15.00;;;5.82;;
64686;SDS011;51113;53.646;-113.674;2023-03-21T00:32:20;16.77;;;6.82;;
64686;SDS011;51113;53.646;-113.674;2023-03-21T00:34:49;11.88;;;6.47;;
64686;SDS011;51113;53.646;-113.674;2023-03-21T00:37:38;18.02;;;7.20;;
64686;SDS011;51113;53.646;-113.674;2023-03-21T00:40:07;13.88;;;6.60;;
64686;SDS011;51113;53.646;-113.674;2023-03-21T00:42:51;14.25;;;6.90;;
64686;SDS011;51113;53.646;-113.674;2023-03-21T00:45:19;15.82;;;7.57;;
64686;SDS011;51113;53.646;-113.674;2023-03-21T00:47:51;16.08;;;7.30;;
64686;SDS011;51113;53.646;-113.674;2023-03-21T00:50:20;23.88;;;8.00;;
64686;SDS011;51113;53.646;-113.674;2023-03-21T00:52:49;20.30;;;6.97;;
64686;SDS011;51113;53.646;-113.674;2023-03-21T00:55:18;21.17;;;7.65;;
64686;SDS011;51113;53.646;-113.674;2023-03-21T00:57:47;19.05;;;8.38;;
64686;SDS011;51113;53.646;-113.674;2023-03-21T01:00:27;16.45;;;8.25;;
64686;SDS011;51113;53.646;-113.674;2023-03-21T01:02:56;16.80;;;8.15;;
64686;SDS011;51113;53.646;-113.674;2023-03-21T01:05:40;21.55;;;8.02;;
64686;SDS011;51113;53.646;-113.674;2023-03-21T01:08:34;15.68;;;8.27;;
64686;SDS011;51113;53.646;-113.674;2023-03-21T01:11:19;16.65;;;9.32;;
64686;SDS011;51113;53.646;-113.674;2023-03-21T01:13:50;28.65;;;12.40;;
64686;SDS011;51113;53.646;-113.674;2023-03-21T01:16:43;37.97;;;13.53;;
64686;SDS011;51113;53.646;-113.674;2023-03-21T01:19:13;32.05;;;14.45;;
64686;SDS011;51113;53.646;-113.674;2023-03-21T01:21:53;25.60;;;14.80;;
64686;SDS011;51113;53.646;-113.674;2023-03-21T01:24:31;30.10;;;14.40;;
64686;SDS011;51113;53.646;-113.674;2023-03-21T01:27:03;32.20;;;15.60;;
64686;SDS011;51113;53.646;-113.674;2023-03-21T01:29:32;27.13;;;14.55;;
64686;SDS011;51113;53.646;-113.674;2023-03-21T01:32:01;28.92;;;14.07;;
64686;SDS011;51113;53.646;-113.674;2023-03-21T01:34:30;29.45;;;14.40;;
64686;SDS011;51113;53.646;-113.674;2023-03-21T01:36:59;26.95;;;13.75;;
64686;SDS011;51113;53.646;-113.674;2023-03-21T01:39:28;27.13;;;13.15;;
64686;SDS011;51113;53.646;-113.674;2023-03-21T01:41:57;26.05;;;12.82;;
64686;SDS011;51113;53.646;-113.674;2023-03-21T01:44:25;31.15;;;13.27;;
64686;SDS011;51113;53.646;-113.674;2023-03-21T01:46:55;22.90;;;12.48;;
64686;SDS011;51113;53.646;-113.674;2023-03-21T01:49:42;25.17;;;12.27;;
64686;SDS011;51113;53.646;-113.674;2023-03-21T01:52:14;30.40;;;12.68;;
64686;SDS011;51113;53.646;-113.674;2023-03-21T01:55:01;31.58;;;13.07;;
64686;SDS011;51113;53.646;-113.674;2023-03-21T01:57:38;25.88;;;12.32;;
64686;SDS011;51113;53.646;-113.674;2023-03-21T02:00:27;29.55;;;12.43;;
64686;SDS011;51113;53.646;-113.674;2023-03-21T02:03:00;24.73;;;11.70;;
64686;SDS011;51113;53.646;-113.674;2023-03-21T02:08:27;34.25;;;13.48;;
64686;SDS011;51113;53.646;-113.674;2023-03-21T02:11:06;28.50;;;12.65;;
64686;SDS011;51113;53.646;-113.674;2023-03-21T02:13:36;24.80;;;12.63;;
64686;SDS011;51113;53.646;-113.674;2023-03-21T02:16:20;28.25;;;12.90;;
64686;SDS011;51113;53.646;-113.674;2023-03-21T02:35:28;20.25;;;9.90;;
64686;SDS011;51113;53.646;-113.674;2023-03-21T02:38:27;19.42;;;9.40;;
64686;SDS011;51113;53.646;-113.674;2023-03-21T02:47:02;23.67;;;10.57;;
64686;SDS011;51113;53.646;-113.674;2023-03-21T02:52:05;30.98;;;11.02;;
64686;SDS011;51113;53.646;-113.674;2023-03-21T02:54:46;29.45;;;10.93;;
64686;SDS011;51113;53.646;-113.674;2023-03-21T02:57:16;23.48;;;10.77;;
64686;SDS011;51113;53.646;-113.674;2023-03-21T02:59:47;35.42;;;10.80;;
64686;SDS011;51113;53.646;-113.674;2023-03-21T03:02:25;21.98;;;10.20;;
64686;SDS011;51113;53.646;-113.674;2023-03-21T03:04:55;25.30;;;10.50;;
64686;SDS011;51113;53.646;-113.674;2023-03-21T03:13:14;25.98;;;10.15;;
64686;SDS011;51113;53.646;-113.674;2023-03-21T03:15:49;26.92;;;10.02;;
64686;SDS011;51113;53.646;-113.674;2023-03-21T03:18:34;27.05;;;9.32;;
64686;SDS011;51113;53.646;-113.674;2023-03-21T03:21:20;25.35;;;10.30;;
64686;SDS011;51113;53.646;-113.674;2023-03-21T03:29:12;17.80;;;8.63;;
64686;SDS011;51113;53.646;-113.674;2023-03-21T03:31:48;17.58;;;9.13;;
64686;SDS011;51113;53.646;-113.674;2023-03-21T03:34:22;19.58;;;8.82;;
64686;SDS011;51113;53.646;-113.674;2023-03-21T03:36:56;18.33;;;8.32;;
64686;SDS011;51113;53.646;-113.674;2023-03-21T03:39:29;21.63;;;8.38;;
64686;SDS011;51113;53.646;-113.674;2023-03-21T03:42:04;15.52;;;7.95;;
64686;SDS011;51113;53.646;-113.674;2023-03-21T03:44:53;17.70;;;8.50;;
64686;SDS011;51113;53.646;-113.674;2023-03-21T03:47:28;27.92;;;9.68;;
64686;SDS011;51113;53.646;-113.674;2023-03-21T03:50:19;18.08;;;9.35;;
64686;SDS011;51113;53.646;-113.674;2023-03-21T03:53:03;19.92;;;9.57;;
64686;SDS011;51113;53.646;-113.674;2023-03-21T03:55:52;22.25;;;10.38;;
64686;SDS011;51113;53.646;-113.674;2023-03-21T03:58:23;24.17;;;9.75;;
64686;SDS011;51113;53.646;-113.674;2023-03-21T04:01:10;20.75;;;10.48;;
64686;SDS011;51113;53.646;-113.674;2023-03-21T04:03:39;23.95;;;11.20;;
64686;SDS011;51113;53.646;-113.674;2023-03-21T04:06:18;25.90;;;11.70;;
64686;SDS011;51113;53.646;-113.674;2023-03-21T04:08:49;27.35;;;12.20;;
64686;SDS011;51113;53.646;-113.674;2023-03-21T04:11:17;30.13;;;12.85;;
64686;SDS011;51113;53.646;-113.674;2023-03-21T04:13:46;30.42;;;13.57;;
64686;SDS011;51113;53.646;-113.674;2023-03-21T04:16:15;33.13;;;14.10;;
64686;SDS011;51113;53.646;-113.674;2023-03-21T04:18:44;28.50;;;14.98;;
64686;SDS011;51113;53.646;-113.674;2023-03-21T04:21:14;29.58;;;16.02;;
64686;SDS011;51113;53.646;-113.674;2023-03-21T04:23:43;32.72;;;16.48;;
64686;SDS011;51113;53.646;-113.674;2023-03-21T04:26:12;28.75;;;16.63;;
64686;SDS011;51113;53.646;-113.674;2023-03-21T04:28:41;33.25;;;16.00;;
64686;SDS011;51113;53.646;-113.674;2023-03-21T04:31:09;35.05;;;18.30;;
64686;SDS011;51113;53.646;-113.674;2023-03-21T04:33:51;30.55;;;17.08;;
64686;SDS011;51113;53.646;-113.674;2023-03-21T04:36:20;31.52;;;17.48;;
64686;SDS011;51113;53.646;-113.674;2023-03-21T04:38:54;34.60;;;17.83;;
64686;SDS011;51113;53.646;-113.674;2023-03-21T04:41:28;31.13;;;18.83;;
64686;SDS011;51113;53.646;-113.674;2023-03-21T04:43:57;31.25;;;17.75;;
64686;SDS011;51113;53.646;-113.674;2023-03-21T04:46:26;30.92;;;17.52;;
64686;SDS011;51113;53.646;-113.674;2023-03-21T04:48:54;29.85;;;17.45;;
64686;SDS011;51113;53.646;-113.674;2023-03-21T04:51:23;34.75;;;15.80;;
64686;SDS011;51113;53.646;-113.674;2023-03-21T04:53:51;26.98;;;15.95;;
64686;SDS011;51113;53.646;-113.674;2023-03-21T04:56:24;28.88;;;16.73;;
64686;SDS011;51113;53.646;-113.674;2023-03-21T04:59:11;34.13;;;17.42;;
64686;SDS011;51113;53.646;-113.674;2023-03-21T05:01:41;27.40;;;15.68;;
64686;SDS011;51113;53.646;-113.674;2023-03-21T05:04:12;28.85;;;14.80;;
64686;SDS011;51113;53.646;-113.674;2023-03-21T05:06:41;34.95;;;14.68;;
64686;SDS011;51113;53.646;-113.674;2023-03-21T05:09:11;25.75;;;15.60;;
64686;SDS011;51113;53.646;-113.674;2023-03-21T05:11:40;29.58;;;15.40;;
64686;SDS011;51113;53.646;-113.674;2023-03-21T05:14:10;27.85;;;15.18;;
64686;SDS011;51113;53.646;-113.674;2023-03-21T05:16:42;27.70;;;15.63;;
64686;SDS011;51113;53.646;-113.674;2023-03-21T05:19:15;28.35;;;14.25;;
64686;SDS011;51113;53.646;-113.674;2023-03-21T05:21:44;21.85;;;13.20;;
64686;SDS011;51113;53.646;-113.674;2023-03-21T05:24:14;23.33;;;14.10;;
64686;SDS011;51113;53.646;-113.674;2023-03-21T05:26:44;31.27;;;14.75;;
64686;SDS011;51113;53.646;-113.674;2023-03-21T05:29:17;27.33;;;14.65;;
64686;SDS011;51113;53.646;-113.674;2023-03-21T05:31:46;23.77;;;13.73;;
64686;SDS011;51113;53.646;-113.674;2023-03-21T05:34:15;23.90;;;13.90;;
64686;SDS011;51113;53.646;-113.674;2023-03-21T05:36:43;25.52;;;14.65;;
64686;SDS011;51113;53.646;-113.674;2023-03-21T05:39:12;23.92;;;14.05;;
64686;SDS011;51113;53.646;-113.674;2023-03-21T05:41:41;23.85;;;13.98;;
64686;SDS011;51113;53.646;-113.674;2023-03-21T05:44:09;27.92;;;13.18;;
64686;SDS011;51113;53.646;-113.674;2023-03-21T05:46:38;24.42;;;12.57;;
64686;SDS011;51113;53.646;-113.674;2023-03-21T05:49:08;25.13;;;13.65;;
64686;SDS011;51113;53.646;-113.674;2023-03-21T05:51:38;27.10;;;14.00;;
64686;SDS011;51113;53.646;-113.674;2023-03-21T05:54:07;24.70;;;14.05;;
64686;SDS011;51113;53.646;-113.674;2023-03-21T05:56:35;26.67;;;13.30;;
64686;SDS011;51113;53.646;-113.674;2023-03-21T05:59:04;22.88;;;13.05;;
64686;SDS011;51113;53.646;-113.674;2023-03-21T06:01:33;23.15;;;12.77;;
64686;SDS011;51113;53.646;-113.674;2023-03-21T06:04:01;24.02;;;13.20;;
64686;SDS011;51113;53.646;-113.674;2023-03-21T06:06:30;23.95;;;13.45;;
64686;SDS011;51113;53.646;-113.674;2023-03-21T06:08:59;22.00;;;12.35;;
64686;SDS011;51113;53.646;-113.674;2023-03-21T06:11:29;23.45;;;12.35;;
64686;SDS011;51113;53.646;-113.674;2023-03-21T06:13:59;24.67;;;13.00;;
64686;SDS011;51113;53.646;-113.674;2023-03-21T06:16:28;24.13;;;13.30;;
64686;SDS011;51113;53.646;-113.674;2023-03-21T06:18:57;25.08;;;13.18;;
64686;SDS011;51113;53.646;-113.674;2023-03-21T06:21:25;24.42;;;13.88;;
64686;SDS011;51113;53.646;-113.674;2023-03-21T06:23:54;27.70;;;13.27;;
64686;SDS011;51113;53.646;-113.674;2023-03-21T06:26:23;33.40;;;13.57;;
64686;SDS011;51113;53.646;-113.674;2023-03-21T06:28:52;29.65;;;14.30;;
64686;SDS011;51113;53.646;-113.674;2023-03-21T06:31:21;27.42;;;13.82;;
64686;SDS011;51113;53.646;-113.674;2023-03-21T06:33:49;30.40;;;13.40;;
64686;SDS011;51113;53.646;-113.674;2023-03-21T06:36:18;26.80;;;14.43;;
64686;SDS011;51113;53.646;-113.674;2023-03-21T06:38:47;27.77;;;14.38;;
64686;SDS011;51113;53.646;-113.674;2023-03-21T06:41:16;29.70;;;14.82;;
64686;SDS011;51113;53.646;-113.674;2023-03-21T06:43:44;26.50;;;14.02;;
64686;SDS011;51113;53.646;-113.674;2023-03-21T06:46:15;27.30;;;14.30;;
64686;SDS011;51113;53.646;-113.674;2023-03-21T06:48:43;22.95;;;12.80;;
64686;SDS011;51113;53.646;-113.674;2023-03-21T06:51:13;25.40;;;13.32;;
64686;SDS011;51113;53.646;-113.674;2023-03-21T06:53:42;25.60;;;14.02;;
64686;SDS011;51113;53.646;-113.674;2023-03-21T06:56:11;26.90;;;13.32;;
64686;SDS011;51113;53.646;-113.674;2023-03-21T06:58:41;26.15;;;13.18;;
64686;SDS011;51113;53.646;-113.674;2023-03-21T07:01:10;25.52;;;12.35;;
64686;SDS011;51113;53.646;-113.674;2023-03-21T07:03:39;22.27;;;12.25;;
64686;SDS011;51113;53.646;-113.674;2023-03-21T07:06:08;24.30;;;12.75;;
64686;SDS011;51113;53.646;-113.674;2023-03-21T07:08:41;23.08;;;12.98;;
64686;SDS011;51113;53.646;-113.674;2023-03-21T07:11:10;23.08;;;12.07;;
64686;SDS011;51113;53.646;-113.674;2023-03-21T07:13:38;23.00;;;12.55;;
64686;SDS011;51113;53.646;-113.674;2023-03-21T07:16:07;23.45;;;12.13;;
64686;SDS011;51113;53.646;-113.674;2023-03-21T07:18:36;23.77;;;12.60;;
64686;SDS011;51113;53.646;-113.674;2023-03-21T07:21:05;23.75;;;12.13;;
64686;SDS011;51113;53.646;-113.674;2023-03-21T07:23:34;27.55;;;12.65;;
64686;SDS011;51113;53.646;-113.674;2023-03-21T07:26:05;21.13;;;10.98;;
64686;SDS011;51113;53.646;-113.674;2023-03-21T07:28:34;23.48;;;10.13;;
64686;SDS011;51113;53.646;-113.674;2023-03-21T07:31:03;19.65;;;10.35;;
64686;SDS011;51113;53.646;-113.674;2023-03-21T07:33:33;19.92;;;8.98;;
64686;SDS011;51113;53.646;-113.674;2023-03-21T07:36:07;15.38;;;8.57;;
64686;SDS011;51113;53.646;-113.674;2023-03-21T07:38:38;17.00;;;7.60;;
64686;SDS011;51113;53.646;-113.674;2023-03-21T07:41:07;13.60;;;6.00;;
64686;SDS011;51113;53.646;-113.674;2023-03-21T07:43:36;10.55;;;4.97;;
64686;SDS011;51113;53.646;-113.674;2023-03-21T07:46:05;9.98;;;5.20;;
64686;SDS011;51113;53.646;-113.674;2023-03-21T07:48:34;9.38;;;5.20;;
64686;SDS011;51113;53.646;-113.674;2023-03-21T07:51:04;10.27;;;5.15;;
64686;SDS011;51113;53.646;-113.674;2023-03-21T07:53:33;10.48;;;4.80;;
64686;SDS011;51113;53.646;-113.674;2023-03-21T07:56:01;10.15;;;4.32;;
64686;SDS011;51113;53.646;-113.674;2023-03-21T07:58:30;12.07;;;4.55;;
64686;SDS011;51113;53.646;-113.674;2023-03-21T08:01:01;6.50;;;4.00;;
64686;SDS011;51113;53.646;-113.674;2023-03-21T08:03:29;7.93;;;4.22;;
64686;SDS011;51113;53.646;-113.674;2023-03-21T08:05:59;12.70;;;4.70;;
64686;SDS011;51113;53.646;-113.674;2023-03-21T08:08:29;7.53;;;4.35;;
64686;SDS011;51113;53.646;-113.674;2023-03-21T08:10:58;7.05;;;4.05;;
64686;SDS011;51113;53.646;-113.674;2023-03-21T08:13:26;7.88;;;3.90;;
64686;SDS011;51113;53.646;-113.674;2023-03-21T08:15:55;8.13;;;4.15;;
64686;SDS011;51113;53.646;-113.674;2023-03-21T08:18:24;12.57;;;4.70;;
64686;SDS011;51113;53.646;-113.674;2023-03-21T08:20:53;8.30;;;4.35;;
64686;SDS011;51113;53.646;-113.674;2023-03-21T08:23:23;6.68;;;4.13;;
64686;SDS011;51113;53.646;-113.674;2023-03-21T08:25:53;7.78;;;4.05;;
64686;SDS011;51113;53.646;-113.674;2023-03-21T08:28:22;6.78;;;3.75;;
64686;SDS011;51113;53.646;-113.674;2023-03-21T08:30:51;7.07;;;4.03;;
64686;SDS011;51113;53.646;-113.674;2023-03-21T08:33:20;9.45;;;3.97;;
64686;SDS011;51113;53.646;-113.674;2023-03-21T08:35:49;8.13;;;4.43;;
64686;SDS011;51113;53.646;-113.674;2023-03-21T08:38:18;7.28;;;4.15;;
64686;SDS011;51113;53.646;-113.674;2023-03-21T08:40:47;7.90;;;4.13;;
64686;SDS011;51113;53.646;-113.674;2023-03-21T08:43:17;7.50;;;4.05;;
64686;SDS011;51113;53.646;-113.674;2023-03-21T08:45:46;7.65;;;3.63;;
64686;SDS011;51113;53.646;-113.674;2023-03-21T08:48:14;7.85;;;4.45;;
64686;SDS011;51113;53.646;-113.674;2023-03-21T08:50:43;7.32;;;4.07;;
64686;SDS011;51113;53.646;-113.674;2023-03-21T08:53:12;6.38;;;3.72;;
64686;SDS011;51113;53.646;-113.674;2023-03-21T08:55:42;6.43;;;3.65;;
64686;SDS011;51113;53.646;-113.674;2023-03-21T08:58:11;6.47;;;3.70;;
64686;SDS011;51113;53.646;-113.674;2023-03-21T09:00:39;7.63;;;4.28;;
64686;SDS011;51113;53.646;-113.674;2023-03-21T09:03:08;7.20;;;4.00;;
64686;SDS011;51113;53.646;-113.674;2023-03-21T09:05:37;9.35;;;4.40;;
64686;SDS011;51113;53.646;-113.674;2023-03-21T09:08:06;9.25;;;3.92;;
64686;SDS011;51113;53.646;-113.674;2023-03-21T09:10:34;8.80;;;4.40;;
64686;SDS011;51113;53.646;-113.674;2023-03-21T09:13:03;8.82;;;4.47;;
64686;SDS011;51113;53.646;-113.674;2023-03-21T09:15:32;7.47;;;4.20;;
64686;SDS011;51113;53.646;-113.674;2023-03-21T09:18:02;10.25;;;3.92;;
64686;SDS011;51113;53.646;-113.674;2023-03-21T09:20:42;8.10;;;4.18;;
64686;SDS011;51113;53.646;-113.674;2023-03-21T09:23:13;9.68;;;4.13;;
64686;SDS011;51113;53.646;-113.674;2023-03-21T09:25:43;9.07;;;4.53;;
64686;SDS011;51113;53.646;-113.674;2023-03-21T09:28:12;7.05;;;3.78;;
64686;SDS011;51113;53.646;-113.674;2023-03-21T09:30:41;6.90;;;4.05;;
64686;SDS011;51113;53.646;-113.674;2023-03-21T09:33:10;7.10;;;3.72;;
64686;SDS011;51113;53.646;-113.674;2023-03-21T09:35:45;6.20;;;3.63;;
64686;SDS011;51113;53.646;-113.674;2023-03-21T09:38:17;5.40;;;3.47;;
64686;SDS011;51113;53.646;-113.674;2023-03-21T09:46:26;9.88;;;4.18;;
64686;SDS011;51113;53.646;-113.674;2023-03-21T09:49:05;8.18;;;3.88;;
64686;SDS011;51113;53.646;-113.674;2023-03-21T09:51:46;8.45;;;3.90;;
64686;SDS011;51113;53.646;-113.674;2023-03-21T09:54:26;9.50;;;3.60;;
64686;SDS011;51113;53.646;-113.674;2023-03-21T09:57:15;7.68;;;4.05;;
64686;SDS011;51113;53.646;-113.674;2023-03-21T10:00:02;8.43;;;4.05;;
64686;SDS011;51113;53.646;-113.674;2023-03-21T10:02:43;6.32;;;3.42;;
64686;SDS011;51113;53.646;-113.674;2023-03-21T10:05:20;6.60;;;3.67;;
64686;SDS011;51113;53.646;-113.674;2023-03-21T10:10:31;6.38;;;3.90;;
64686;SDS011;51113;53.646;-113.674;2023-03-21T10:13:18;7.13;;;3.70;;
64686;SDS011;51113;53.646;-113.674;2023-03-21T10:18:20;7.15;;;3.63;;
64686;SDS011;51113;53.646;-113.674;2023-03-21T10:20:51;7.15;;;3.60;;
64686;SDS011;51113;53.646;-113.674;2023-03-21T10:23:21;8.00;;;3.30;;
64686;SDS011;51113;53.646;-113.674;2023-03-21T10:26:00;6.25;;;3.72;;
64686;SDS011;51113;53.646;-113.674;2023-03-21T10:28:34;8.32;;;3.80;;
64686;SDS011;51113;53.646;-113.674;2023-03-21T10:31:19;6.97;;;3.47;;
64686;SDS011;51113;53.646;-113.674;2023-03-21T10:33:53;7.43;;;3.60;;
64686;SDS011;51113;53.646;-113.674;2023-03-21T10:36:24;6.05;;;3.30;;
64686;SDS011;51113;53.646;-113.674;2023-03-21T10:38:59;7.32;;;3.83;;
64686;SDS011;51113;53.646;-113.674;2023-03-21T10:41:54;7.55;;;4.05;;
64686;SDS011;51113;53.646;-113.674;2023-03-21T10:44:27;9.27;;;4.47;;
64686;SDS011;51113;53.646;-113.674;2023-03-21T10:47:05;10.00;;;5.03;;
64686;SDS011;51113;53.646;-113.674;2023-03-21T10:49:36;9.85;;;5.45;;
64686;SDS011;51113;53.646;-113.674;2023-03-21T10:52:26;10.88;;;5.63;;
64686;SDS011;51113;53.646;-113.674;2023-03-21T10:55:06;9.90;;;5.03;;
64686;SDS011;51113;53.646;-113.674;2023-03-21T10:57:51;9.48;;;5.05;;
64686;SDS011;51113;53.646;-113.674;2023-03-21T11:00:26;12.73;;;5.18;;
64686;SDS011;51113;53.646;-113.674;2023-03-21T11:02:56;16.75;;;5.75;;
64686;SDS011;51113;53.646;-113.674;2023-03-21T11:05:38;11.45;;;5.55;;
64686;SDS011;51113;53.646;-113.674;2023-03-21T11:08:14;12.32;;;6.47;;
64686;SDS011;51113;53.646;-113.674;2023-03-21T11:16:22;11.55;;;5.80;;
64686;SDS011;51113;53.646;-113.674;2023-03-21T11:18:56;16.48;;;5.97;;
64686;SDS011;51113;53.646;-113.674;2023-03-21T11:21:34;13.07;;;5.68;;
64686;SDS011;51113;53.646;-113.674;2023-03-21T11:24:04;12.88;;;6.50;;
64686;SDS011;51113;53.646;-113.674;2023-03-21T11:26:34;13.50;;;6.40;;
64686;SDS011;51113;53.646;-113.674;2023-03-21T11:29:19;15.65;;;6.57;;
64686;SDS011;51113;53.646;-113.674;2023-03-21T11:35:34;16.73;;;8.00;;
64686;SDS011;51113;53.646;-113.674;2023-03-21T11:37:56;14.45;;;7.18;;
64686;SDS011;51113;53.646;-113.674;2023-03-21T11:40:25;18.38;;;7.60;;
64686;SDS011;51113;53.646;-113.674;2023-03-21T11:45:34;9.48;;;4.65;;
64686;SDS011;51113;53.646;-113.674;2023-03-21T11:48:09;8.60;;;4.60;;
64686;SDS011;51113;53.646;-113.674;2023-03-21T11:50:43;8.68;;;4.60;;
64686;SDS011;51113;53.646;-113.674;2023-03-21T11:53:36;6.55;;;3.58;;
64686;SDS011;51113;53.646;-113.674;2023-03-21T11:56:27;7.50;;;4.28;;
64686;SDS011;51113;53.646;-113.674;2023-03-21T12:07:24;9.02;;;4.15;;
64686;SDS011;51113;53.646;-113.674;2023-03-21T12:10:23;7.22;;;3.95;;
64686;SDS011;51113;53.646;-113.674;2023-03-21T12:15:42;7.25;;;3.65;;
64686;SDS011;51113;53.646;-113.674;2023-03-21T12:23:50;16.25;;;4.85;;
64686;SDS011;51113;53.646;-113.674;2023-03-21T12:26:35;8.85;;;3.72;;
64686;SDS011;51113;53.646;-113.674;2023-03-21T12:29:35;8.18;;;4.35;;
64686;SDS011;51113;53.646;-113.674;2023-03-21T12:38:09;7.90;;;4.20;;
64686;SDS011;51113;53.646;-113.674;2023-03-21T12:43:36;8.65;;;3.90;;
64686;SDS011;51113;53.646;-113.674;2023-03-21T12:49:02;7.97;;;4.18;;
64686;SDS011;51113;53.646;-113.674;2023-03-21T12:51:52;9.32;;;4.68;;
64686;SDS011;51113;53.646;-113.674;2023-03-21T12:56:55;9.57;;;4.60;;
64686;SDS011;51113;53.646;-113.674;2023-03-21T12:59:37;8.75;;;4.00;;
64686;SDS011;51113;53.646;-113.674;2023-03-21T13:07:35;8.05;;;4.43;;
64686;SDS011;51113;53.646;-113.674;2023-03-21T13:10:14;19.55;;;5.00;;
64686;SDS011;51113;53.646;-113.674;2023-03-21T13:12:50;9.45;;;4.20;;
64686;SDS011;51113;53.646;-113.674;2023-03-21T13:15:29;10.95;;;4.75;;
64686;SDS011;51113;53.646;-113.674;2023-03-21T13:18:25;10.23;;;5.30;;
64686;SDS011;51113;53.646;-113.674;2023-03-21T13:21:07;15.45;;;5.10;;
64686;SDS011;51113;53.646;-113.674;2023-03-21T13:23:59;9.00;;;3.90;;
64686;SDS011;51113;53.646;-113.674;2023-03-21T13:26:33;15.85;;;5.85;;
64686;SDS011;51113;53.646;-113.674;2023-03-21T13:29:12;13.25;;;5.20;;
64686;SDS011;51113;53.646;-113.674;2023-03-21T13:31:50;9.65;;;4.68;;
64686;SDS011;51113;53.646;-113.674;2023-03-21T13:34:23;9.63;;;4.50;;
64686;SDS011;51113;53.646;-113.674;2023-03-21T13:36:51;11.85;;;5.28;;
64686;SDS011;51113;53.646;-113.674;2023-03-21T13:39:24;12.15;;;4.70;;
64686;SDS011;51113;53.646;-113.674;2023-03-21T13:41:54;12.27;;;4.88;;
64686;SDS011;51113;53.646;-113.674;2023-03-21T13:44:35;17.10;;;5.47;;
64686;SDS011;51113;53.646;-113.674;2023-03-21T13:55:35;11.18;;;4.95;;
64686;SDS011;51113;53.646;-113.674;2023-03-21T14:01:04;20.02;;;5.53;;
64686;SDS011;51113;53.646;-113.674;2023-03-21T14:03:39;22.52;;;5.90;;
64686;SDS011;51113;53.646;-113.674;2023-03-21T14:06:09;9.82;;;5.07;;
64686;SDS011;51113;53.646;-113.674;2023-03-21T14:08:38;13.70;;;5.60;;
64686;SDS011;51113;53.646;-113.674;2023-03-21T14:11:10;14.48;;;5.68;;
64686;SDS011;51113;53.646;-113.674;2023-03-21T14:13:42;12.18;;;6.10;;
64686;SDS011;51113;53.646;-113.674;2023-03-21T14:16:16;16.33;;;6.30;;
64686;SDS011;51113;53.646;-113.674;2023-03-21T14:18:51;10.63;;;5.47;;
64686;SDS011;51113;53.646;-113.674;2023-03-21T14:21:24;12.88;;;5.80;;
64686;SDS011;51113;53.646;-113.674;2023-03-21T14:24:00;11.40;;;5.68;;
64686;SDS011;51113;53.646;-113.674;2023-03-21T14:26:41;16.65;;;5.53;;
64686;SDS011;51113;53.646;-113.674;2023-03-21T14:29:20;15.32;;;6.63;;
64686;SDS011;51113;53.646;-113.674;2023-03-21T14:31:55;10.70;;;5.28;;
64686;SDS011;51113;53.646;-113.674;2023-03-21T14:34:25;16.77;;;6.18;;
64686;SDS011;51113;53.646;-113.674;2023-03-21T14:36:55;12.52;;;6.13;;
64686;SDS011;51113;53.646;-113.674;2023-03-21T14:39:29;23.65;;;6.72;;
64686;SDS011;51113;53.646;-113.674;2023-03-21T14:42:06;24.25;;;6.25;;
64686;SDS011;51113;53.646;-113.674;2023-03-21T14:44:40;13.15;;;6.10;;
64686;SDS011;51113;53.646;-113.674;2023-03-21T14:49:51;23.35;;;7.18;;
64686;SDS011;51113;53.646;-113.674;2023-03-21T14:52:24;19.05;;;7.10;;
64686;SDS011;51113;53.646;-113.674;2023-03-21T14:54:59;20.70;;;6.03;;
64686;SDS011;51113;53.646;-113.674;2023-03-21T14:57:30;19.23;;;6.00;;
64686;SDS011;51113;53.646;-113.674;2023-03-21T15:00:00;16.92;;;6.55;;
64686;SDS011;51113;53.646;-113.674;2023-03-21T15:02:41;35.63;;;14.63;;
64686;SDS011;51113;53.646;-113.674;2023-03-21T15:05:24;34.78;;;13.32;;
64686;SDS011;51113;53.646;-113.674;2023-03-21T15:08:11;35.10;;;11.07;;
64686;SDS011;51113;53.646;-113.674;2023-03-21T15:16:12;14.90;;;6.75;;
64686;SDS011;51113;53.646;-113.674;2023-03-21T15:18:43;18.00;;;7.88;;
64686;SDS011;51113;53.646;-113.674;2023-03-21T15:21:19;17.23;;;6.97;;
64686;SDS011;51113;53.646;-113.674;2023-03-21T15:24:09;14.68;;;6.38;;
64686;SDS011;51113;53.646;-113.674;2023-03-21T15:26:48;18.58;;;6.55;;
64686;SDS011;51113;53.646;-113.674;2023-03-21T15:29:17;18.17;;;5.82;;
64686;SDS011;51113;53.646;-113.674;2023-03-21T15:31:46;13.23;;;6.90;;
64686;SDS011;51113;53.646;-113.674;2023-03-21T15:34:22;13.35;;;6.30;;
64686;SDS011;51113;53.646;-113.674;2023-03-21T15:36:55;14.50;;;6.28;;
64686;SDS011;51113;53.646;-113.674;2023-03-21T15:39:26;12.65;;;5.72;;
64686;SDS011;51113;53.646;-113.674;2023-03-21T15:42:00;12.70;;;6.32;;
64686;SDS011;51113;53.646;-113.674;2023-03-21T15:44:32;8.35;;;4.80;;
64686;SDS011;51113;53.646;-113.674;2023-03-21T15:47:02;13.40;;;6.80;;
64686;SDS011;51113;53.646;-113.674;2023-03-21T15:49:32;13.13;;;5.50;;
64686;SDS011;51113;53.646;-113.674;2023-03-21T15:52:12;11.48;;;6.25;;
64686;SDS011;51113;53.646;-113.674;2023-03-21T15:54:45;12.00;;;5.57;;
64686;SDS011;51113;53.646;-113.674;2023-03-21T15:57:24;10.93;;;5.43;;
64686;SDS011;51113;53.646;-113.674;2023-03-21T15:59:59;14.05;;;5.50;;
64686;SDS011;51113;53.646;-113.674;2023-03-21T16:02:41;22.65;;;5.38;;
64686;SDS011;51113;53.646;-113.674;2023-03-21T16:05:27;16.65;;;6.05;;
64686;SDS011;51113;53.646;-113.674;2023-03-21T16:08:03;11.27;;;4.75;;
64686;SDS011;51113;53.646;-113.674;2023-03-21T16:10:53;14.35;;;5.80;;
64686;SDS011;51113;53.646;-113.674;2023-03-21T16:13:34;12.13;;;6.05;;
64686;SDS011;51113;53.646;-113.674;2023-03-21T16:16:02;12.50;;;5.93;;
64686;SDS011;51113;53.646;-113.674;2023-03-21T16:18:31;17.85;;;6.68;;
64686;SDS011;51113;53.646;-113.674;2023-03-21T16:21:03;15.38;;;5.80;;
64686;SDS011;51113;53.646;-113.674;2023-03-21T16:23:32;15.90;;;6.22;;
64686;SDS011;51113;53.646;-113.674;2023-03-21T16:26:01;10.32;;;5.65;;
64686;SDS011;51113;53.646;-113.674;2023-03-21T16:28:31;10.00;;;4.75;;
64686;SDS011;51113;53.646;-113.674;2023-03-21T16:31:00;11.25;;;5.60;;